UKDD Airport Information

Runway Information
Runway 09 Length 9320 ft width 144 ft
Elevation 453 ft Threshold 0 ft Heading 90
Runway 27 Length 9320 ft Width 144 ft
Elevation 472 ft Threshold 0 ft Heading 270
Airport Frequencies
Type APP Name RADAR Frequency 119.4 MHZ
Type GND Name GND Frequency 121.8 MHZ
Type PMSV Name METEO Frequency 134.9 MHZ
Type TWR Name TWR Frequency 118.6 MHZ
Airport Navaids
Type VOR-DME Name Dnipropetrovsk Frequency 112500 KHZ
Airport Weather Information & NOTAM
ADDS - METARS form results

(0816 UTC 21 April 2019)
Data provider http://aviationweather.gov/metar/data/
 
METAR text: UKDD 210800Z 10005MPS 070V160 CAVOK 14/M05 Q1025 R08/090070 NOSIG
Conditions at: UKDD (DNIPROPETROVSK , UA) observed 0800 UTC 21 April 2019
Temperature: 14.0°C (57°F)
Dewpoint: -5.0°C (23°F) [RH = 26%]
Pressure (altimeter): 30.27 inches Hg (1025.0 mb)
Winds: from the E (100 degrees) at 12 MPH (10 knots; 5.1 m/s)
Visibility: 6 or more miles (10+ km)
Ceiling: ceiling and visibility are OK
Clouds: unknown
Weather: no significant weather observed at this time

METAR text: UKDD 210730Z 10006MPS 060V150 CAVOK 14/M05 Q1025 R08/090070 NOSIG
Conditions at: UKDD (DNIPROPETROVSK , UA) observed 0730 UTC 21 April 2019
Temperature: 14.0°C (57°F)
Dewpoint: -5.0°C (23°F) [RH = 26%]
Pressure (altimeter): 30.27 inches Hg (1025.0 mb)
Winds: from the E (100 degrees) at 14 MPH (12 knots; 6.2 m/s)
Visibility: 6 or more miles (10+ km)
Ceiling: ceiling and visibility are OK
Clouds: unknown
Weather: no significant weather observed at this time

Forecast for: UKDD (DNIPROPETROVSK , UA)
Text: TAF UKDD 210505Z 2106/2206 08004G09MPS CAVOK TX15/2112Z TN02/2202Z
Forecast period: 0600 UTC 21 April 2019 to 0600 UTC 22 April 2019
Forecast type: FROM: standard forecast or significant change
Winds: from the E (80 degrees) at 9 MPH (8 knots; 4.1 m/s)
gusting to 20 MPH (17 knots; 8.7 m/s)
Visibility: 6 or more miles 10+ km)
Ceiling: unknown
Clouds: missing
Weather: no significant weather forecast for this period
Text: TEMPO 2106/2115 11005MPS
Forecast period: 0600 to 1500 UTC 21 April 2019
Forecast type: TEMPORARY: The following changes expected for less than half the time period
Winds: from the ESE (110 degrees) at 12 MPH (10 knots; 5.1 m/s)
Visibility: missing
Ceiling: unknown
Clouds: missing
Weather: no significant weather forecast for this period